Terminal Aerodrome Forecast
Issued by NWS North Platte, NE

Home | Current Version | Previous Version | Graphics & Text | Print | Product List | Glossary On
Versions: 1 2 3 4 5 6 7 8 9 10 11 12 13 14 15 16 17 18 19 20 21 22
000
FTUS43 KLBF 251100
TAFVTN
TAF
KVTN 251120Z 2512/2612 33012G18KT P6SM BKN018
     FM251400 33016G24KT P6SM BKN022
     FM251600 33017G25KT P6SM SCT030
     FM260100 33010KT P6SM SCT250=

USA.gov is the U.S. government's official web portal to all federal, state and local government web resources and services.